Flight Track Log - Related Links

Times and Time Zones

All times are in EST time to prevent confusion due to time zone crossing. See the ASH9441 flight status page for this flight to view local times or setup timezone preferences in your user account.

Time Position Orientation Groundspeed Altitude Reporting Facility
EST Latitude Longitude Course Direction KTS MPH feet Rate Location/Type
Wed 09:24:43 AM 42.7683 -73.8031 352° North 166 191 2,000  Level Boston Center
Wed 09:25:31 AM 42.8078 -73.8106 352° North 197 227 4,100 2,939 Climbing Boston Center
Wed 09:25:32 AM 42.8108 -73.8131 329° Northwest 184 212 4,400 3,290 Climbing Boston Center
Wed 09:26:33 AM 42.8589 -73.8789 315° West 252 290 7,500 3,590 Climbing Boston Center
Wed 09:27:34 AM 42.9158 -73.9492 318° Northwest 273 314 11,700 3,934 Climbing Boston Center
Wed 09:28:35 AM 42.9758 -74.0214 319° Northwest 287 330 15,500 3,393 Climbing Boston Center
Wed 09:29:36 AM 43.0389 -74.0928 320° Northwest 294 338 18,600 2,754 Climbing Boston Center
Wed 09:30:37 AM 43.0539 -74.2164 279° West 326 375 21,100 2,607 Climbing Boston Center
Wed 09:31:38 AM 43.0647 -74.3406 277° West 327 376 23,900 2,656 Climbing Boston Center
Wed 09:32:39 AM 43.0717 -74.4711 274° West 339 390 26,500 2,016 Climbing Boston Center
Wed 09:33:40 AM 43.0719 -74.6056 270° West 351 404 28,000 738 Climbing Boston Center
Wed 09:34:41 AM 43.0617 -74.7433 264° West 361 415 28,000  Level Boston Center
Wed 09:35:42 AM 43.0544 -74.8794 266° West 358 412 28,000  Level Boston Center
Wed 09:36:43 AM 43.0461 -75.0144 265° West 355 409 28,000  Level Boston Center
Wed 09:37:44 AM 43.0364 -75.1494 264° West 355 409 28,000  Level Boston Center
Wed 09:38:57 AM 43.0281 -75.2850 265° West 355 409 28,000  Level Boston Center
Wed 09:39:58 AM 43.0167 -75.4475 265° West 356 410 28,000  Level Boston Center
Wed 09:40:59 AM 43.0075 -75.5814 265° West 354 407 28,000  Level Boston Center
Wed 09:42:12 AM 42.9972 -75.7167 264° West 356 410 28,000  Level Boston Center
Wed 09:43:13 AM 42.9861 -75.8794 265° West 358 412 28,000  Level Boston Center
Wed 09:44:14 AM 42.9764 -76.0136 264° West 357 411 28,000  Level Boston Center
Wed 09:45:15 AM 42.9661 -76.1478 264° West 356 410 28,000  Level Boston Center
Wed 09:46:16 AM 42.9536 -76.3092 264° West 357 411 28,000  Level Boston Center
Wed 09:47:17 AM 42.9425 -76.4439 264° West 358 412 28,000  Level Boston Center
Wed 09:48:18 AM 42.9322 -76.5778 264° West 356 410 28,000  Level Boston Center
Wed 09:49:13 AM 42.9231 -76.6847 263° West 355 409 28,000  Level Cleveland Center
Wed 09:50:16 AM 42.9114 -76.8247 264° West 359 413 28,000  Level Cleveland Center
Wed 09:51:21 AM 42.8536 -76.9678 241° Southwest 363 418 28,000  Level Boston Center
Wed 09:52:22 AM 42.8028 -77.0861 240° Southwest 362 417 28,000  Level Boston Center
Wed 09:53:22 AM 42.7511 -77.2039 239° Southwest 362 417 28,000  Level Cleveland Center
Wed 09:54:24 AM 42.6997 -77.3219 239° Southwest 362 417 28,000  Level Cleveland Center
Wed 09:55:26 AM 42.6481 -77.4392 239° Southwest 360 414 28,000  Level Cleveland Center
Wed 09:56:28 AM 42.5994 -77.5497 239° Southwest 362 417 28,000  Level Cleveland Center
Wed 09:57:30 AM 42.5369 -77.6889 239° Southwest 362 417 28,000  Level Cleveland Center
Wed 09:58:32 AM 42.4844 -77.8047 238° Southwest 361 415 28,000  Level Cleveland Center
Wed 09:59:34 AM 42.4358 -77.9117 238° Southwest 360 414 28,000  Level Cleveland Center
Wed 10:00:36 AM 42.3833 -78.0275 238° Southwest 361 415 28,000  Level Cleveland Center
Wed 10:01:38 AM 42.3208 -78.1656 239° Southwest 360 414 28,000  Level Cleveland Center
Wed 10:02:40 AM 42.2686 -78.2828 239° Southwest 364 419 28,000  Level Cleveland Center
Wed 10:03:42 AM 42.2158 -78.3975 238° Southwest 361 415 28,000  Level Cleveland Center
Wed 10:04:44 AM 42.1658 -78.5053 238° Southwest 360 414 28,000  Level Cleveland Center
Wed 10:05:46 AM 42.1025 -78.6422 238° Southwest 361 415 28,000  Level Cleveland Center
Wed 10:06:48 AM 42.0497 -78.7569 238° Southwest 361 415 28,000  Level Cleveland Center
Wed 10:07:50 AM 41.9969 -78.8708 238° Southwest 362 417 28,000  Level Cleveland Center
Wed 10:08:52 AM 41.9433 -78.9839 238° Southwest 362 417 28,000  Level Cleveland Center
Wed 10:09:54 AM 41.8867 -79.1064 238° Southwest 362 417 28,000  Level Cleveland Center
Wed 10:10:56 AM 41.8325 -79.2200 237° Southwest 363 418 28,000  Level Cleveland Center
Wed 10:11:58 AM 41.7728 -79.3461 238° Southwest 360 414 28,000  Level Cleveland Center
Wed 10:13:00 AM 41.7186 -79.4594 237° Southwest 362 417 28,000  Level Cleveland Center
Wed 10:14:02 AM 41.6653 -79.5711 237° Southwest 360 414 28,000  Level Cleveland Center
Wed 10:15:04 AM 41.6119 -79.6853 238° Southwest 359 413 28,000  Level Cleveland Center
Wed 10:16:06 AM 41.5575 -79.7964 237° Southwest 358 412 28,000  Level Cleveland Center
Wed 10:17:08 AM 41.4919 -79.9311 237° Southwest 360 414 28,000  Level Cleveland Center
Wed 10:18:10 AM 41.4403 -80.0442 239° Southwest 360 414 28,000  Level Cleveland Center
Wed 10:19:12 AM 41.3839 -80.1564 236° Southwest 361 415 28,000  Level Cleveland Center
Wed 10:20:14 AM 41.3294 -80.2681 237° Southwest 358 412 28,000 -629 Level Cleveland Center
Wed 10:21:16 AM 41.2758 -80.3794 237° Southwest 356 410 26,700 -1,355 Descending Cleveland Center
Wed 10:22:18 AM 41.2219 -80.4892 237° Southwest 352 405 25,200 -1,306 Descending Cleveland Center
Wed 10:23:20 AM 41.1675 -80.5986 237° Southwest 350 403 24,000 -823 Descending Cleveland Center
Wed 10:24:22 AM 41.1144 -80.7072 237° Southwest 350 403 23,500 -726 Descending Cleveland Center
Wed 10:25:24 AM 41.0517 -80.8328 236° Southwest 348 400 22,500 -1,306 Descending Cleveland Center
Wed 10:26:26 AM 40.9972 -80.9397 236° Southwest 346 398 20,800 -1,790 Descending Cleveland Center
Wed 10:27:28 AM 40.9472 -81.0417 237° Southwest 334 384 18,800 -1,742 Descending Cleveland Center
Wed 10:28:30 AM 40.8967 -81.1425 236° Southwest 327 376 17,200 -1,694 Descending Cleveland Center
Wed 10:29:32 AM 40.8469 -81.2403 236° Southwest 320 368 15,300 -1,548 Descending Cleveland Center
Wed 10:30:34 AM 40.7986 -81.3375 237° Southwest 315 362 14,000 -629 Descending Cleveland Center
Wed 10:31:36 AM 40.7494 -81.4339 236° Southwest 314 361 14,000  Level Cleveland Center
Wed 10:32:38 AM 40.7025 -81.5264 236° Southwest 306 352 14,000  Level Cleveland Center
Wed 10:33:40 AM 40.6544 -81.6208 236° Southwest 306 352 14,000  Level Cleveland Center
Wed 10:34:42 AM 40.5953 -81.7353 236° Southwest 317 365 14,000  Level Cleveland Center
Wed 10:35:44 AM 40.5456 -81.8339 236° Southwest 321 369 14,000 -341 Level Cleveland Center
Wed 10:36:45 AM 40.4964 -81.9292 236° Southwest 314 361 13,300 -829 Descending Cleveland Center
Wed 10:37:47 AM 40.4475 -82.0242 236° Southwest 310 357 12,300 -968 Descending Cleveland Center
Wed 10:38:49 AM 40.3997 -82.1169 236° Southwest 305 351 11,300 -830 Descending Cleveland Center
Wed 10:39:21 AM 40.3717 -82.1706 236° Southwest 303 349 11,000 -222 Descending Indianapolis Center
Wed 10:40:10 AM 40.3314 -82.2467 235° Southwest 305 351 11,000  Level Indianapolis Center
Wed 10:40:12 AM 40.3333 -82.2389 72° East 303 349 11,000 -190 Level Indianapolis Center
Wed 10:41:13 AM 40.2828 -82.3281 233° Southwest 303 349 10,800 -277 Descending Indianapolis Center
Wed 10:41:17 AM 40.2733 -82.3339 205° Southwest 288 331 10,700 -1,220 Descending Indianapolis Center
Wed 10:42:12 AM 40.2281 -82.3956 226° Southwest 249 287 9,600 -1,034 Descending Indianapolis Center
Wed 10:42:15 AM 40.2300 -82.3903 64° Northeast 260 299 9,700 -1,300 Climbing Indianapolis Center
Wed 10:43:12 AM 40.1731 -82.4692 227° Southwest 266 306 8,300 -1,161 Descending Indianapolis Center
Wed 10:43:17 AM 40.1778 -82.4589 59° Northeast 263 303 8,500 -2,066 Climbing Indianapolis Center
Wed 10:44:13 AM 40.1169 -82.5317 222° Southwest 268 308 6,200 -2,066 Descending Indianapolis Center
Wed 10:44:18 AM 40.1233 -82.5247 40° Northeast 266 306 6,400 -1,433 Climbing Indianapolis Center
Wed 10:45:20 AM 40.0572 -82.5881 216° Southwest 241 277 4,600 -1,171 Descending Indianapolis Center
Wed 10:46:21 AM 40.0086 -82.6317 214° Southwest 225 259 4,000 -341 Descending Indianapolis Center
Wed 10:47:23 AM 39.9867 -82.6878 243° Southwest 196 226 3,900 -90 Descending Indianapolis Center
Wed 10:47:28 AM 39.9903 -82.7006 290° West 177 204 3,900 -1,065 Level Indianapolis Center
Wed 10:48:25 AM 39.9939 -82.7539 275° West 187 215 2,800 -1,164 Descending Indianapolis Center
Wed 10:48:35 AM 39.9944 -82.7694 273° West 178 205 2,600 -885 Descending Indianapolis Center
Wed 10:49:26 AM 39.9972 -82.8111 275° West 173 199 1,900 -873 Descending Indianapolis Center
Wed 10:49:30 AM 39.9981 -82.8192 278° West 149 171 1,800 -581 Descending Indianapolis Center
Wed 10:50:28 AM 40.0000 -82.8650 273° West 157 181 1,300 -689 Descending Indianapolis Center
Wed 10:50:31 AM 40.0000 -82.8658 270° West 128 147 1,100 -4,000 Descending Indianapolis Center

Login

Don't have an account? Register now (free) for customized features, flight alerts, and more!